Time;durP1;ratioP1;P1;durP2;ratioP2;P2;SDS_P1;SDS_P2;PMS_P1;PMS_P2;Temp;Humidity;BMP_temperature;BMP_pressure;BME280_temperature;BME280_humidity;BME280_pressure;Samples;Min_cycle;Max_cycle;Signal;HPM_P1;HPM_P2
2024/01/29 00:01:48;;;;;;;7.53;3.93;;;8.90;99.90;;;;;;7280899;19;20189;-78
2024/01/29 00:04:14;;;;;;;8.00;3.87;;;8.90;99.90;;;;;;7279520;19;20258;-78
2024/01/29 00:06:39;;;;;;;7.70;3.40;;;9.00;99.90;;;;;;7280638;19;20190;-78
2024/01/29 00:09:05;;;;;;;6.60;2.93;;;9.00;99.90;;;;;;7281738;19;20184;-78
2024/01/29 00:11:34;;;;;;;8.90;3.90;;;9.10;99.90;;;;;;7302594;19;20228;-78
2024/01/29 00:14:00;;;;;;;8.73;3.70;;;9.20;99.90;;;;;;7282149;19;20268;-77
2024/01/29 00:16:26;;;;;;;8.23;3.70;;;9.30;99.90;;;;;;7282662;19;20733;-78
2024/01/29 00:18:51;;;;;;;8.93;3.60;;;9.30;99.90;;;;;;7281048;19;20205;-78
2024/01/29 00:21:17;;;;;;;8.27;3.53;;;9.30;99.90;;;;;;7282030;19;20199;-78
2024/01/29 00:23:43;;;;;;;7.43;3.20;;;9.30;99.90;;;;;;7281918;19;20199;-77
2024/01/29 00:26:09;;;;;;;8.17;3.50;;;9.40;99.90;;;;;;7279682;19;20200;-78
2024/01/29 00:28:34;;;;;;;7.70;3.40;;;9.30;99.90;;;;;;7280415;19;20656;-79
2024/01/29 00:31:00;;;;;;;8.20;3.43;;;9.40;99.90;;;;;;7303026;19;20315;-78
2024/01/29 00:33:26;;;;;;;8.93;3.63;;;9.60;99.90;;;;;;7281385;19;20215;-78
2024/01/29 00:35:52;;;;;;;8.07;2.97;;;9.80;99.90;;;;;;7281369;19;20208;-78
2024/01/29 00:38:17;;;;;;;7.87;3.30;;;9.80;99.90;;;;;;7280067;19;20202;-78
2024/01/29 00:40:43;;;;;;;6.97;3.40;;;9.80;99.90;;;;;;7284734;19;20206;-78
2024/01/29 00:43:09;;;;;;;6.97;3.20;;;9.80;99.90;;;;;;7288719;19;20199;-78
2024/01/29 00:45:34;;;;;;;9.60;3.23;;;9.70;99.90;;;;;;7285458;19;20192;-78
2024/01/29 00:48:00;;;;;;;7.63;3.30;;;9.70;99.90;;;;;;7309093;19;20215;-78
2024/01/29 00:50:26;;;;;;;7.57;3.63;;;9.70;99.90;;;;;;7288206;19;20195;-78
2024/01/29 00:52:52;;;;;;;7.50;3.50;;;9.70;99.90;;;;;;7287529;19;20201;-78
2024/01/29 00:55:17;;;;;;;7.73;3.70;;;9.70;99.90;;;;;;7287615;19;20263;-78
2024/01/29 00:57:43;;;;;;;7.73;3.50;;;9.70;99.90;;;;;;7285013;19;20256;-79
2024/01/29 01:00:10;;;;;;;8.43;3.70;;;9.70;99.90;;;;;;7287264;19;20197;-78
2024/01/29 01:02:36;;;;;;;8.40;3.07;;;9.70;99.90;;;;;;7285319;19;20683;-78
2024/01/29 01:05:02;;;;;;;7.87;3.53;;;9.70;99.90;;;;;;7307142;19;20258;-79
2024/01/29 01:07:28;;;;;;;7.90;3.53;;;9.70;99.90;;;;;;7299684;19;20190;-78
2024/01/29 01:09:54;;;;;;;7.57;3.70;;;9.70;99.90;;;;;;7286586;19;20666;-79
2024/01/29 01:12:20;;;;;;;8.10;3.70;;;9.70;99.90;;;;;;7285220;19;20195;-78
2024/01/29 01:14:46;;;;;;;8.67;3.60;;;9.70;99.90;;;;;;7287405;19;20192;-79
2024/01/29 01:17:11;;;;;;;8.00;3.50;;;9.60;99.90;;;;;;7285874;19;20707;-78
2024/01/29 01:19:37;;;;;;;7.67;3.40;;;9.60;99.90;;;;;;7286835;19;20183;-78
2024/01/29 01:22:03;;;;;;;5.97;2.93;;;9.70;99.90;;;;;;7295813;19;20196;-78
2024/01/29 01:24:29;;;;;;;6.10;3.27;;;9.70;99.90;;;;;;7306150;19;20196;-78
2024/01/29 01:26:54;;;;;;;7.53;3.70;;;9.70;99.90;;;;;;7286190;19;20279;-78
2024/01/29 01:29:20;;;;;;;6.67;2.97;;;9.70;99.90;;;;;;7288378;19;20192;-79
2024/01/29 01:31:46;;;;;;;6.90;3.17;;;9.80;99.90;;;;;;7286088;19;20185;-78
2024/01/29 01:34:12;;;;;;;6.87;3.43;;;9.80;99.90;;;;;;7286230;19;20230;-78
2024/01/29 01:36:38;;;;;;;9.73;3.10;;;9.70;99.90;;;;;;7285479;19;20188;-79
2024/01/29 01:39:04;;;;;;;6.80;3.50;;;9.80;99.90;;;;;;7292303;19;20223;-78
2024/01/29 01:41:29;;;;;;;8.77;3.50;;;9.80;99.90;;;;;;7310035;19;20619;-78
2024/01/29 01:43:55;;;;;;;6.60;3.23;;;9.90;99.90;;;;;;7285178;19;20223;-78
2024/01/29 01:46:22;;;;;;;6.07;3.00;;;9.90;99.90;;;;;;7285396;19;20201;-78
2024/01/29 01:48:53;;;;;;;5.60;2.80;;;9.90;99.90;;;;;;7285356;19;20185;-79
2024/01/29 01:51:20;;;;;;;6.57;2.80;;;9.80;99.90;;;;;;7283433;19;20203;-79
2024/01/29 01:53:49;;;;;;;7.73;3.27;;;9.80;99.90;;;;;;7283428;19;20199;-78
2024/01/29 01:56:16;;;;;;;7.03;3.50;;;9.90;99.90;;;;;;7285265;19;20225;-79
2024/01/29 01:58:42;;;;;;;6.53;3.00;;;9.90;99.90;;;;;;7283693;19;20579;-78
2024/01/29 02:01:08;;;;;;;6.17;2.83;;;9.90;99.90;;;;;;7283319;19;20187;-79
2024/01/29 02:03:34;;;;;;;6.63;3.00;;;10.00;99.90;;;;;;7285330;19;20325;-78
2024/01/29 02:06:00;;;;;;;8.83;2.90;;;9.90;99.90;;;;;;7304982;19;20229;-78
2024/01/29 02:08:26;;;;;;;7.43;3.30;;;10.00;99.90;;;;;;7284481;19;20193;-79
2024/01/29 02:10:54;;;;;;;6.57;3.10;;;10.00;99.90;;;;;;7284174;19;20204;-79
2024/01/29 02:13:20;;;;;;;8.93;3.73;;;10.00;99.90;;;;;;7284435;19;20217;-79
2024/01/29 02:15:45;;;;;;;6.27;3.20;;;10.00;99.90;;;;;;7283896;19;20202;-78
2024/01/29 02:18:11;;;;;;;6.90;3.07;;;10.10;99.90;;;;;;7285160;19;20688;-79
2024/01/29 02:20:37;;;;;;;6.97;2.93;;;10.10;99.90;;;;;;7284029;19;20550;-79
2024/01/29 02:23:03;;;;;;;6.57;3.00;;;10.10;99.90;;;;;;7300300;19;20597;-78
2024/01/29 02:25:29;;;;;;;6.83;3.30;;;10.00;99.90;;;;;;7306685;19;20224;-77
2024/01/29 02:27:55;;;;;;;8.47;3.07;;;10.00;99.90;;;;;;7283480;19;20204;-79
2024/01/29 02:30:21;;;;;;;7.07;3.40;;;9.90;99.90;;;;;;7285619;19;20195;-78
2024/01/29 02:32:46;;;;;;;6.20;3.20;;;10.00;99.90;;;;;;7284415;19;20191;-78
2024/01/29 02:35:12;;;;;;;8.70;3.00;;;9.90;99.90;;;;;;7285042;19;20214;-78
2024/01/29 02:37:38;;;;;;;6.70;3.57;;;9.90;99.90;;;;;;7284613;19;20200;-78
2024/01/29 02:40:04;;;;;;;7.13;3.43;;;9.70;99.90;;;;;;7290050;19;20304;-78
2024/01/29 02:42:30;;;;;;;7.80;3.40;;;9.70;99.90;;;;;;7306886;19;20207;-78
2024/01/29 02:44:56;;;;;;;7.73;3.20;;;9.70;99.90;;;;;;7283690;19;20299;-78
2024/01/29 02:47:22;;;;;;;5.87;3.07;;;9.70;99.90;;;;;;7285922;19;20193;-78
2024/01/29 02:49:48;;;;;;;6.17;3.13;;;9.60;99.90;;;;;;7283844;19;20184;-78
2024/01/29 02:52:13;;;;;;;7.20;3.33;;;9.60;99.90;;;;;;7283493;19;20193;-78
2024/01/29 02:54:39;;;;;;;6.20;3.30;;;9.60;99.90;;;;;;7284408;19;20193;-78
2024/01/29 02:57:06;;;;;;;6.90;3.23;;;9.70;99.90;;;;;;7284583;19;20194;-78
2024/01/29 02:59:32;;;;;;;8.07;3.63;;;9.70;99.90;;;;;;7307433;19;20208;-78
2024/01/29 03:01:59;;;;;;;7.23;3.33;;;9.70;99.90;;;;;;7283152;19;20181;-78
2024/01/29 03:04:25;;;;;;;7.80;3.70;;;9.60;99.90;;;;;;7283626;19;20519;-78
2024/01/29 03:06:51;;;;;;;7.97;3.80;;;9.60;99.90;;;;;;7285131;19;20276;-78
2024/01/29 03:09:17;;;;;;;8.17;4.00;;;9.60;99.90;;;;;;7285480;19;20244;-77
2024/01/29 03:11:43;;;;;;;7.73;3.90;;;9.60;99.90;;;;;;7282456;19;20200;-77
2024/01/29 03:14:10;;;;;;;10.87;4.40;;;9.50;99.90;;;;;;7284486;19;20187;-77
2024/01/29 03:16:36;;;;;;;11.97;5.13;;;9.50;99.90;;;;;;7283656;19;20217;-77
2024/01/29 03:19:02;;;;;;;9.00;4.87;;;9.60;99.90;;;;;;7304715;19;20215;-77
2024/01/29 03:21:28;;;;;;;10.77;5.90;;;9.60;99.90;;;;;;7283363;19;20264;-77
2024/01/29 03:23:55;;;;;;;9.53;5.40;;;9.50;99.90;;;;;;7282366;19;20243;-77
2024/01/29 03:26:21;;;;;;;10.70;5.17;;;9.50;99.90;;;;;;7281717;19;20214;-77
2024/01/29 03:28:46;;;;;;;9.20;4.67;;;9.50;99.90;;;;;;7282780;19;20227;-77
2024/01/29 03:31:12;;;;;;;10.07;4.47;;;9.60;99.90;;;;;;7281862;19;20240;-77
2024/01/29 03:33:38;;;;;;;9.27;4.20;;;9.60;99.90;;;;;;7282647;19;20196;-77
2024/01/29 03:36:07;;;;;;;8.63;4.40;;;9.60;99.90;;;;;;7288797;19;20196;-77
2024/01/29 03:38:33;;;;;;;9.77;4.10;;;9.50;99.90;;;;;;7301029;19;20196;-77
2024/01/29 03:41:00;;;;;;;8.47;4.30;;;9.60;99.90;;;;;;7300726;19;20273;-77
2024/01/29 03:43:26;;;;;;;7.67;4.23;;;9.50;99.90;;;;;;7281593;19;20185;-77
2024/01/29 03:45:53;;;;;;;9.87;4.83;;;9.40;99.90;;;;;;7283678;19;20191;-77
2024/01/29 03:48:19;;;;;;;8.90;4.50;;;9.40;99.90;;;;;;7281509;19;20224;-77
2024/01/29 03:50:44;;;;;;;9.10;4.50;;;9.50;99.90;;;;;;7282745;19;20193;-77
2024/01/29 03:53:10;;;;;;;11.17;4.67;;;9.50;99.90;;;;;;7283005;19;20251;-77
2024/01/29 03:55:36;;;;;;;11.83;5.50;;;9.50;99.90;;;;;;7283480;19;20220;-77
2024/01/29 03:58:02;;;;;;;13.47;6.73;;;9.40;99.90;;;;;;7305753;19;20188;-77
2024/01/29 04:00:29;;;;;;;16.13;7.93;;;9.50;99.90;;;;;;7281857;19;20202;-77
2024/01/29 04:02:55;;;;;;;19.60;9.93;;;9.50;99.90;;;;;;7281901;19;20219;-77
2024/01/29 04:05:21;;;;;;;24.33;11.27;;;9.40;99.90;;;;;;7281833;19;20192;-77
2024/01/29 04:07:48;;;;;;;24.13;11.47;;;9.30;99.90;;;;;;7282203;19;20200;-77
2024/01/29 04:10:14;;;;;;;32.63;13.70;;;9.30;99.90;;;;;;7283036;19;20205;-77
2024/01/29 04:12:39;;;;;;;31.80;14.30;;;9.30;99.90;;;;;;7282267;19;20652;-78
2024/01/29 04:15:05;;;;;;;30.70;12.93;;;9.30;99.90;;;;;;7286193;19;20188;-77
2024/01/29 04:17:31;;;;;;;28.17;11.70;;;9.30;99.90;;;;;;7310721;19;20266;-77
2024/01/29 04:19:57;;;;;;;17.50;6.90;;;9.30;99.90;;;;;;7290202;19;20218;-77
2024/01/29 04:22:23;;;;;;;16.20;5.27;;;9.30;99.90;;;;;;7288993;19;20717;-77
2024/01/29 04:24:48;;;;;;;9.23;4.20;;;9.20;99.90;;;;;;7287948;19;20188;-78
2024/01/29 04:27:14;;;;;;;9.00;4.40;;;9.10;99.90;;;;;;7290354;19;20190;-78
2024/01/29 04:29:40;;;;;;;12.37;4.77;;;9.00;99.90;;;;;;7289748;19;20527;-78
2024/01/29 04:32:06;;;;;;;8.47;4.30;;;9.10;99.90;;;;;;7288074;19;20206;-77
2024/01/29 04:34:32;;;;;;;12.43;5.13;;;9.20;99.90;;;;;;7312105;19;20199;-77
2024/01/29 04:36:57;;;;;;;11.40;4.97;;;9.20;99.90;;;;;;7289318;19;20551;-78
2024/01/29 04:39:23;;;;;;;13.47;5.30;;;9.30;99.90;;;;;;7288541;19;20214;-78
2024/01/29 04:41:49;;;;;;;12.47;5.57;;;9.30;99.90;;;;;;7288778;19;20185;-78
2024/01/29 04:44:14;;;;;;;11.33;5.50;;;9.30;99.90;;;;;;7287285;19;20673;-77
2024/01/29 04:46:41;;;;;;;14.90;5.67;;;9.30;99.90;;;;;;7288781;19;20192;-77
2024/01/29 04:49:07;;;;;;;11.13;5.23;;;9.40;99.90;;;;;;7287460;19;20193;-77
2024/01/29 04:51:33;;;;;;;13.30;5.70;;;9.30;99.90;;;;;;7310206;19;20191;-77
2024/01/29 04:53:58;;;;;;;13.73;7.00;;;9.30;99.90;;;;;;7290011;19;20189;-77
2024/01/29 04:56:24;;;;;;;15.37;8.47;;;9.30;99.90;;;;;;7288673;19;20182;-77
2024/01/29 04:58:50;;;;;;;17.97;9.53;;;9.30;99.90;;;;;;7287230;19;20294;-77
2024/01/29 05:01:16;;;;;;;20.93;11.33;;;9.30;99.90;;;;;;7286801;19;20314;-77
2024/01/29 05:03:43;;;;;;;19.03;10.83;;;9.30;99.90;;;;;;7284922;19;20184;-77
2024/01/29 05:06:08;;;;;;;19.80;10.10;;;9.20;99.90;;;;;;7287945;19;20536;-77
2024/01/29 05:08:34;;;;;;;18.13;9.00;;;9.30;99.90;;;;;;7290821;19;20202;-76
2024/01/29 05:11:00;;;;;;;17.37;9.10;;;9.20;99.90;;;;;;7307964;19;20199;-77
2024/01/29 05:13:26;;;;;;;17.60;9.53;;;9.10;99.90;;;;;;7287976;19;20231;-77
2024/01/29 05:15:52;;;;;;;20.90;10.00;;;9.20;99.90;;;;;;7287294;19;20195;-77
2024/01/29 05:18:17;;;;;;;19.13;9.27;;;9.20;99.90;;;;;;7286724;19;20197;-77
2024/01/29 05:20:43;;;;;;;17.47;9.13;;;9.10;99.90;;;;;;7287177;19;20199;-77
2024/01/29 05:23:09;;;;;;;16.63;8.50;;;9.00;99.90;;;;;;7287465;19;20227;-77
2024/01/29 05:25:35;;;;;;;17.87;8.60;;;8.90;99.90;;;;;;7283812;19;20214;-77
2024/01/29 05:28:01;;;;;;;16.87;8.10;;;8.90;99.90;;;;;;7309393;19;20191;-77
2024/01/29 05:30:26;;;;;;;15.77;7.70;;;8.80;99.90;;;;;;7285393;19;20194;-77
2024/01/29 05:32:52;;;;;;;13.37;6.87;;;8.80;99.90;;;;;;7285481;19;20193;-77
2024/01/29 05:35:18;;;;;;;17.10;7.53;;;8.80;99.90;;;;;;7286457;19;20250;-77
2024/01/29 05:37:44;;;;;;;17.90;7.53;;;8.80;99.90;;;;;;7287970;19;20750;-77
2024/01/29 05:40:11;;;;;;;16.10;7.33;;;8.80;99.90;;;;;;7285425;19;20293;-78
2024/01/29 05:42:37;;;;;;;16.80;7.87;;;8.90;99.90;;;;;;7287553;19;20192;-78
2024/01/29 05:45:04;;;;;;;13.10;7.30;;;8.90;99.90;;;;;;7304103;19;20202;-78
2024/01/29 05:47:29;;;;;;;10.50;6.20;;;8.90;99.90;;;;;;7303005;19;20189;-78
2024/01/29 05:49:55;;;;;;;11.87;5.60;;;8.90;99.90;;;;;;7284852;19;20250;-78
2024/01/29 05:52:21;;;;;;;11.17;5.77;;;8.90;99.90;;;;;;7285874;19;20200;-78
2024/01/29 05:54:47;;;;;;;9.93;5.30;;;8.80;99.90;;;;;;7287543;19;20185;-78
2024/01/29 05:57:14;;;;;;;11.57;5.87;;;8.80;99.90;;;;;;7287851;19;20194;-78
2024/01/29 05:59:41;;;;;;;11.17;5.43;;;8.80;99.90;;;;;;7286094;19;20191;-79
2024/01/29 06:02:07;;;;;;;9.10;4.97;;;8.80;99.90;;;;;;7285744;19;20590;-78
2024/01/29 06:04:33;;;;;;;10.27;5.13;;;8.70;99.90;;;;;;7308092;19;20274;-79
2024/01/29 06:06:59;;;;;;;10.83;5.30;;;8.70;99.90;;;;;;7286301;19;20187;-78
2024/01/29 06:09:25;;;;;;;11.57;5.30;;;8.70;99.90;;;;;;7284966;19;20209;-78
2024/01/29 06:11:50;;;;;;;11.20;5.77;;;8.60;99.90;;;;;;7289277;19;20193;-78
2024/01/29 06:14:17;;;;;;;11.20;5.47;;;8.50;99.90;;;;;;7290094;19;20274;-78
2024/01/29 06:16:45;;;;;;;13.90;6.63;;;8.50;99.90;;;;;;7291140;19;20187;-78
2024/01/29 06:19:15;;;;;;;11.30;6.10;;;8.40;99.90;;;;;;7285356;19;20184;-78
2024/01/29 06:21:44;;;;;;;12.63;6.23;;;8.40;99.90;;;;;;7285356;19;20202;-78
2024/01/29 06:24:10;;;;;;;13.40;6.00;;;8.50;99.90;;;;;;7284462;19;20208;-78
2024/01/29 06:26:36;;;;;;;11.70;5.93;;;8.40;99.90;;;;;;7284056;19;20196;-78
2024/01/29 06:29:02;;;;;;;11.33;5.80;;;8.40;99.90;;;;;;7307706;19;20205;-78
2024/01/29 06:31:28;;;;;;;11.17;6.03;;;8.40;99.90;;;;;;7283350;19;20198;-78
2024/01/29 06:33:54;;;;;;;12.73;6.33;;;8.40;99.90;;;;;;7285851;19;20204;-78
2024/01/29 06:36:20;;;;;;;10.70;5.63;;;8.40;99.90;;;;;;7283117;19;20543;-78
2024/01/29 06:38:46;;;;;;;11.97;5.90;;;8.40;99.90;;;;;;7285028;19;20222;-78
2024/01/29 06:41:37;;;;;;;14.63;6.33;;;8.50;99.90;;;;;;7283771;19;20185;-79
2024/01/29 06:44:05;;;;;;;11.80;5.77;;;8.50;99.90;;;;;;7265232;19;20204;-79
2024/01/29 06:46:31;;;;;;;11.00;6.10;;;8.50;99.90;;;;;;7305194;19;20183;-79
2024/01/29 06:48:57;;;;;;;10.30;5.57;;;8.50;99.90;;;;;;7284021;19;20189;-80
2024/01/29 06:51:23;;;;;;;9.47;5.20;;;8.40;99.90;;;;;;7283531;19;21851;-79
2024/01/29 06:53:49;;;;;;;12.20;6.40;;;8.40;99.90;;;;;;7283949;19;20198;-79
2024/01/29 06:56:14;;;;;;;11.33;5.90;;;8.40;99.90;;;;;;7282875;19;20198;-79
2024/01/29 06:58:41;;;;;;;10.73;5.53;;;8.50;99.90;;;;;;7284356;19;20177;-79
2024/01/29 07:01:07;;;;;;;13.63;6.07;;;8.50;99.90;;;;;;7283138;19;20259;-79
2024/01/29 07:03:33;;;;;;;11.73;6.47;;;8.50;99.90;;;;;;7305920;19;20191;-79
2024/01/29 07:05:59;;;;;;;10.93;5.73;;;8.50;99.90;;;;;;7284512;19;20221;-79
2024/01/29 07:08:25;;;;;;;13.50;6.93;;;8.60;99.90;;;;;;7284777;19;20310;-79
2024/01/29 07:10:51;;;;;;;12.30;6.40;;;8.60;99.90;;;;;;7281515;19;20194;-79
2024/01/29 07:13:16;;;;;;;14.00;7.00;;;8.60;99.90;;;;;;7283286;19;20203;-79
2024/01/29 07:15:42;;;;;;;12.03;6.50;;;8.50;99.90;;;;;;7284189;19;20187;-79
2024/01/29 07:18:08;;;;;;;11.47;6.00;;;8.50;99.90;;;;;;7284190;19;20305;-79
2024/01/29 07:20:42;;;;;;;12.00;6.07;;;8.50;99.90;;;;;;7292699;19;20660;-78
2024/01/29 07:23:09;;;;;;;11.20;5.97;;;8.50;99.90;;;;;;7283727;19;20187;-79
2024/01/29 07:25:35;;;;;;;11.40;6.17;;;8.50;99.90;;;;;;7292841;19;20194;-79
2024/01/29 07:28:04;;;;;;;11.57;5.90;;;8.60;99.90;;;;;;7306301;19;20220;-79
2024/01/29 07:30:31;;;;;;;11.87;6.13;;;8.60;99.90;;;;;;7284978;19;20188;-79
2024/01/29 07:33:00;;;;;;;11.70;5.40;;;8.70;99.90;;;;;;7284159;19;20196;-79
2024/01/29 07:35:26;;;;;;;11.17;5.97;;;8.70;99.90;;;;;;7284202;19;20208;-79
2024/01/29 07:37:52;;;;;;;10.63;5.50;;;8.70;99.90;;;;;;7283312;19;20215;-79
2024/01/29 07:40:22;;;;;;;10.87;5.63;;;8.80;99.90;;;;;;7281658;19;20625;-79
2024/01/29 07:42:48;;;;;;;11.63;5.73;;;8.80;99.90;;;;;;7282697;19;20198;-79
2024/01/29 07:45:14;;;;;;;12.90;6.10;;;8.90;99.90;;;;;;7283854;19;20759;-79
2024/01/29 07:47:40;;;;;;;12.37;6.20;;;8.90;99.90;;;;;;7284299;19;20598;-79
2024/01/29 07:50:06;;;;;;;12.13;5.93;;;9.10;99.90;;;;;;7295919;19;20186;-79
2024/01/29 07:52:32;;;;;;;12.97;6.43;;;9.20;99.90;;;;;;7318343;19;20587;-80
2024/01/29 07:54:58;;;;;;;11.87;5.97;;;9.30;99.90;;;;;;7297082;19;20259;-79
2024/01/29 07:57:24;;;;;;;12.53;5.97;;;9.30;99.90;;;;;;7297507;19;20655;-79
2024/01/29 07:59:50;;;;;;;13.70;6.20;;;9.40;99.90;;;;;;7296139;19;20854;-79
2024/01/29 08:02:16;;;;;;;12.77;6.63;;;9.40;99.90;;;;;;7296913;19;20197;-79
2024/01/29 08:04:42;;;;;;;12.67;6.33;;;9.50;99.90;;;;;;7297108;19;20886;-79
2024/01/29 08:07:07;;;;;;;11.43;6.10;;;9.60;99.90;;;;;;7296281;19;20190;-78
2024/01/29 08:09:34;;;;;;;12.90;6.63;;;9.70;99.90;;;;;;7319152;19;20219;-79
2024/01/29 08:12:00;;;;;;;11.43;6.20;;;9.70;99.90;;;;;;7295728;19;20212;-79
2024/01/29 08:14:26;;;;;;;11.93;6.27;;;9.70;99.90;;;;;;7296969;19;20201;-80
2024/01/29 08:16:51;;;;;;;10.43;6.27;;;9.70;99.90;;;;;;7296917;19;20191;-79
2024/01/29 08:19:17;;;;;;;12.53;6.60;;;9.80;99.90;;;;;;7296815;19;20683;-79
2024/01/29 08:21:43;;;;;;;10.57;5.60;;;10.00;99.90;;;;;;7297129;19;21013;-79
2024/01/29 08:24:09;;;;;;;12.07;5.90;;;10.00;99.90;;;;;;7295274;19;20228;-79
2024/01/29 08:26:35;;;;;;;11.33;6.27;;;10.10;99.90;;;;;;7300164;19;20204;-80
2024/01/29 08:29:01;;;;;;;13.30;6.80;;;10.20;99.90;;;;;;7318744;19;20714;-79
2024/01/29 08:31:29;;;;;;;12.30;6.53;;;10.30;99.90;;;;;;7295258;19;20199;-79
2024/01/29 08:33:55;;;;;;;10.50;6.37;;;10.40;99.90;;;;;;7296520;19;20180;-79
2024/01/29 08:36:21;;;;;;;16.37;6.93;;;10.40;99.90;;;;;;7294927;19;20587;-79
2024/01/29 08:38:50;;;;;;;13.17;7.03;;;10.50;99.90;;;;;;7294400;19;20558;-79
2024/01/29 08:41:16;;;;;;;14.10;6.43;;;10.50;99.90;;;;;;7295470;19;20189;-79
2024/01/29 08:43:41;;;;;;;11.77;7.20;;;10.60;99.90;;;;;;7295379;19;20193;-79
2024/01/29 08:46:07;;;;;;;14.90;7.23;;;10.70;99.90;;;;;;7294930;19;20198;-78
2024/01/29 08:48:33;;;;;;;15.50;7.13;;;10.70;99.90;;;;;;7316021;19;20766;-80
2024/01/29 08:51:02;;;;;;;14.67;7.43;;;10.80;99.90;;;;;;7292801;19;20192;-79
2024/01/29 08:53:28;;;;;;;14.03;7.57;;;11.00;99.90;;;;;;7294768;19;20212;-80
2024/01/29 08:55:53;;;;;;;14.30;7.63;;;11.00;99.90;;;;;;7294564;19;20202;-78
2024/01/29 08:58:19;;;;;;;14.67;7.20;;;11.10;99.90;;;;;;7295161;19;20214;-79
2024/01/29 09:00:45;;;;;;;14.33;7.67;;;11.30;99.90;;;;;;7287729;19;20192;-78
2024/01/29 09:03:11;;;;;;;15.00;8.53;;;11.30;99.90;;;;;;7287152;19;20198;-79
2024/01/29 09:05:38;;;;;;;15.93;8.93;;;11.50;99.90;;;;;;7287788;19;20188;-78
2024/01/29 09:08:05;;;;;;;19.53;8.93;;;11.30;99.90;;;;;;7301284;19;20201;-77
2024/01/29 09:10:31;;;;;;;15.60;8.10;;;11.20;99.90;;;;;;7310007;19;20684;-79
2024/01/29 09:12:57;;;;;;;13.93;8.37;;;11.00;99.90;;;;;;7286329;19;20184;-80
2024/01/29 09:15:22;;;;;;;14.23;7.83;;;11.00;99.90;;;;;;7288032;19;20527;-79
2024/01/29 09:17:48;;;;;;;13.67;6.47;;;11.10;99.90;;;;;;7287721;19;20185;-80
2024/01/29 09:20:14;;;;;;;11.70;6.87;;;11.00;99.90;;;;;;7285865;19;20231;-79
2024/01/29 09:22:40;;;;;;;12.83;6.97;;;11.00;99.90;;;;;;7281802;19;20557;-80
2024/01/29 09:25:07;;;;;;;14.07;7.00;;;11.00;99.90;;;;;;7285949;19;20181;-77
2024/01/29 09:27:34;;;;;;;14.20;6.73;;;11.00;99.90;;;;;;7309301;19;20267;-78
2024/01/29 09:30:00;;;;;;;11.97;6.30;;;11.00;99.90;;;;;;7288583;19;20231;-77
2024/01/29 09:32:26;;;;;;;14.30;7.37;;;11.00;99.90;;;;;;7285566;19;21071;-77
2024/01/29 09:34:52;;;;;;;12.23;6.77;;;11.20;99.90;;;;;;7287892;19;20203;-79
2024/01/29 09:37:20;;;;;;;14.30;7.00;;;11.30;99.90;;;;;;7287952;19;20195;-78
2024/01/29 09:39:45;;;;;;;15.03;7.20;;;11.40;99.90;;;;;;7286463;19;20185;-78
2024/01/29 09:42:17;;;;;;;14.77;7.00;;;11.50;99.90;;;;;;7286391;19;20196;-78
2024/01/29 09:44:46;;;;;;;13.20;7.40;;;11.80;99.90;;;;;;7287963;19;20189;-80
2024/01/29 09:47:13;;;;;;;13.30;7.67;;;11.90;99.90;;;;;;7285692;19;20183;-79
2024/01/29 09:49:39;;;;;;;13.67;7.60;;;12.20;99.90;;;;;;7287336;19;20195;-81
2024/01/29 09:52:12;;;;;;;13.37;7.33;;;12.50;99.90;;;;;;7295794;19;20202;-79
2024/01/29 09:54:40;;;;;;;13.93;7.50;;;12.60;99.90;;;;;;7286485;19;20194;-79
2024/01/29 09:57:12;;;;;;;12.83;7.37;;;12.90;99.90;;;;;;7285814;19;20651;-79
2024/01/29 09:59:40;;;;;;;14.30;8.33;;;13.10;99.90;;;;;;7284663;19;20188;-79
2024/01/29 10:02:08;;;;;;;15.87;8.77;;;13.10;99.90;;;;;;7284073;19;20183;-79
2024/01/29 10:04:35;;;;;;;15.33;8.57;;;13.20;99.90;;;;;;7300108;19;20251;-79
2024/01/29 10:07:00;;;;;;;15.77;8.53;;;13.30;99.90;;;;;;7304003;19;20293;-79
2024/01/29 10:09:26;;;;;;;18.90;9.03;;;13.10;99.90;;;;;;7285239;19;20188;-79
2024/01/29 10:11:52;;;;;;;14.50;9.10;;;13.20;99.90;;;;;;7284500;19;20211;-79
2024/01/29 10:14:18;;;;;;;16.13;8.90;;;13.20;99.90;;;;;;7283430;19;20190;-79
2024/01/29 10:16:44;;;;;;;16.77;8.77;;;13.40;99.90;;;;;;7286175;19;20199;-79
2024/01/29 10:19:12;;;;;;;16.90;8.67;;;13.40;99.90;;;;;;7286395;19;20183;-79
2024/01/29 10:21:44;;;;;;;15.97;8.70;;;13.60;99.90;;;;;;7287512;19;20650;-79
2024/01/29 10:24:13;;;;;;;17.37;8.50;;;14.00;99.90;;;;;;7285681;19;20200;-79
2024/01/29 10:26:40;;;;;;;15.30;7.77;;;14.70;99.90;;;;;;7284143;19;20193;-79
2024/01/29 10:29:07;;;;;;;17.00;8.43;;;15.10;99.90;;;;;;7285369;19;20198;-79
2024/01/29 10:31:33;;;;;;;14.47;7.73;;;16.00;99.90;;;;;;7306722;19;20183;-79
2024/01/29 10:34:00;;;;;;;13.63;7.93;;;16.40;99.90;;;;;;7282582;19;20190;-79
2024/01/29 10:36:26;;;;;;;14.93;7.57;;;16.60;99.90;;;;;;7286398;19;20197;-79
2024/01/29 10:38:53;;;;;;;14.00;7.40;;;17.40;99.90;;;;;;7284784;19;20197;-79
2024/01/29 10:41:21;;;;;;;13.13;7.03;;;17.80;99.90;;;;;;7285165;19;20180;-80
2024/01/29 10:43:59;;;;;;;14.10;6.87;;;18.60;99.90;;;;;;7284747;19;20664;-79
2024/01/29 10:46:26;;;;;;;12.97;7.30;;;19.30;99.90;;;;;;7284991;19;20564;-79
2024/01/29 10:48:53;;;;;;;11.90;6.57;;;19.20;99.90;;;;;;7285008;19;20187;-79
2024/01/29 10:51:20;;;;;;;11.70;6.57;;;19.10;99.90;;;;;;7285176;19;20216;-79
2024/01/29 10:53:48;;;;;;;14.57;6.70;;;19.30;99.90;;;;;;7283900;19;20205;-79
2024/01/29 10:56:16;;;;;;;14.53;7.50;;;19.40;99.90;;;;;;7284187;19;20198;-80
2024/01/29 10:58:42;;;;;;;11.97;7.10;;;19.10;99.90;;;;;;7284762;19;20222;-79
2024/01/29 11:01:10;;;;;;;12.67;6.60;;;18.90;99.90;;;;;;7283598;19;20196;-79
2024/01/29 11:03:37;;;;;;;11.60;6.50;;;18.70;99.90;;;;;;7284959;19;20181;-78
2024/01/29 11:06:30;;;;;;;13.23;6.70;;;18.90;99.90;;;;;;7307285;19;20197;-79
2024/01/29 11:09:02;;;;;;;13.20;6.83;;;19.50;99.90;;;;;;7181141;19;2004784;-80
2024/01/29 11:11:28;;;;;;;11.37;6.50;;;20.00;99.90;;;;;;7285149;19;20214;-79
2024/01/29 11:13:54;;;;;;;11.93;6.27;;;20.50;99.90;;;;;;7283590;19;20714;-79
2024/01/29 11:16:24;;;;;;;12.17;6.40;;;21.00;99.90;;;;;;7283621;19;20202;-79
2024/01/29 11:18:51;;;;;;;11.43;6.40;;;21.20;99.90;;;;;;7283850;19;20284;-79
2024/01/29 11:21:22;;;;;;;13.13;5.97;;;21.70;99.90;;;;;;7283815;19;20202;-79
2024/01/29 11:23:54;;;;;;;12.27;6.07;;;22.30;99.90;;;;;;7280312;19;20210;-79
2024/01/29 11:26:21;;;;;;;11.57;6.07;;;22.20;99.90;;;;;;7282611;19;20695;-80
2024/01/29 11:28:55;;;;;;;11.03;6.53;;;21.70;99.90;;;;;;7284217;19;20193;-79
2024/01/29 11:31:21;;;;;;;12.30;6.53;;;21.40;99.90;;;;;;7284171;19;20209;-80
2024/01/29 11:33:47;;;;;;;9.97;5.83;;;21.70;99.90;;;;;;7286730;19;20188;-80
2024/01/29 11:36:13;;;;;;;12.37;6.40;;;21.70;99.90;;;;;;7285294;19;20185;-80
2024/01/29 11:38:39;;;;;;;12.30;6.40;;;22.30;99.90;;;;;;7282203;19;20214;-80
2024/01/29 11:41:05;;;;;;;12.13;6.03;;;22.20;99.90;;;;;;7291277;19;20185;-80
2024/01/29 11:43:34;;;;;;;12.47;6.33;;;22.50;99.90;;;;;;7305197;19;20192;-80
2024/01/29 11:46:00;;;;;;;12.27;5.97;;;22.10;99.90;;;;;;7283619;19;20185;-80
2024/01/29 11:48:26;;;;;;;10.67;6.17;;;21.60;99.90;;;;;;7284114;19;20186;-80
2024/01/29 11:50:57;;;;;;;10.60;6.43;;;21.40;99.90;;;;;;7283843;19;20959;-80
2024/01/29 11:53:25;;;;;;;10.77;6.20;;;22.10;99.90;;;;;;7282284;19;20188;-80
2024/01/29 11:55:51;;;;;;;11.43;6.33;;;22.10;99.90;;;;;;7282497;19;20189;-80
2024/01/29 11:58:18;;;;;;;11.33;6.37;;;21.50;99.90;;;;;;7283368;19;20189;-80
2024/01/29 12:00:45;;;;;;;11.93;6.10;;;22.10;99.90;;;;;;7281057;19;20209;-79
2024/01/29 12:03:17;;;;;;;11.00;6.13;;;21.40;99.90;;;;;;7282601;19;20197;-79
2024/01/29 12:05:44;;;;;;;11.17;5.90;;;21.40;99.90;;;;;;7281172;19;20195;-79
2024/01/29 12:08:14;;;;;;;10.57;5.93;;;22.10;99.90;;;;;;7280969;19;20208;-79
2024/01/29 12:10:41;;;;;;;12.40;5.90;;;22.20;99.90;;;;;;7282902;19;20313;-79
2024/01/29 12:13:13;;;;;;;9.67;5.77;;;21.60;99.90;;;;;;7278846;19;20215;-80
2024/01/29 12:15:40;;;;;;;10.63;5.93;;;21.80;99.90;;;;;;7281872;19;20192;-79
2024/01/29 12:18:09;;;;;;;10.57;5.40;;;21.60;99.90;;;;;;7291551;19;20200;-79
2024/01/29 12:20:36;;;;;;;11.33;6.33;;;21.30;99.90;;;;;;7299293;19;20192;-79
2024/01/29 12:23:03;;;;;;;11.57;6.17;;;20.80;99.90;;;;;;7302277;19;20187;-78
2024/01/29 12:25:29;;;;;;;10.73;5.53;;;20.80;99.90;;;;;;7277152;19;20198;-79
2024/01/29 12:28:09;;;;;;;10.00;6.07;;;20.70;99.90;;;;;;7281514;19;20792;-79
2024/01/29 12:30:35;;;;;;;9.47;5.80;;;20.60;99.90;;;;;;7279034;19;20190;-78
2024/01/29 12:33:02;;;;;;;11.00;5.90;;;20.90;99.90;;;;;;7298929;19;20194;-79
2024/01/29 12:35:29;;;;;;;10.97;5.70;;;20.80;99.90;;;;;;7285391;19;20186;-79
2024/01/29 12:38:08;;;;;;;11.03;5.73;;;21.10;99.90;;;;;;7287370;19;20560;-79
2024/01/29 12:40:35;;;;;;;8.53;5.13;;;21.30;99.90;;;;;;7288646;19;20196;-80
2024/01/29 12:43:06;;;;;;;10.63;5.93;;;21.40;99.90;;;;;;7293402;19;20230;-79